createdAt,value
2022-08-03T00:02:16.775Z,101322.66
2022-08-03T00:04:49.769Z,101327.69
2022-08-03T00:07:19.667Z,101344.28
2022-08-03T00:09:46.453Z,101326.88
2022-08-03T00:12:31.634Z,101318.84
2022-08-03T00:14:58.968Z,101334.28
2022-08-03T00:17:26.046Z,101331.84
2022-08-03T00:19:52.765Z,101326.56
2022-08-03T00:22:19.834Z,101329.56
2022-08-03T00:24:46.594Z,101320.31
2022-08-03T00:27:16.653Z,101328.63
2022-08-03T00:29:59.989Z,101326.78
2022-08-03T00:32:35.265Z,101318.13
2022-08-03T00:35:12.360Z,101312.50
2022-08-03T00:37:45.465Z,101315.94
2022-08-03T00:40:14.306Z,101325.28
2022-08-03T00:42:51.006Z,101328.97
2022-08-03T00:45:19.546Z,101333.06
2022-08-03T00:47:46.910Z,101311.19
2022-08-03T00:50:14.457Z,101321.56
2022-08-03T00:52:41.766Z,101321.56
2022-08-03T00:55:09.690Z,101317.13
2022-08-03T00:57:37.308Z,101317.13
2022-08-03T01:00:06.533Z,101316.09
2022-08-03T01:02:33.305Z,101319.63
2022-08-03T01:05:00.486Z,101315.59
2022-08-03T01:07:45.901Z,101308.00
2022-08-03T01:10:35.880Z,101314.19
2022-08-03T01:14:03.607Z,101303.50
2022-08-03T01:16:36.887Z,101315.03
2022-08-03T01:19:10.097Z,101310.59
2022-08-03T01:21:39.995Z,101311.03
2022-08-03T01:24:18.981Z,101306.59
2022-08-03T01:26:59.602Z,101301.94
2022-08-03T01:29:50.769Z,101305.94
2022-08-03T01:33:02.784Z,101303.44
2022-08-03T01:35:12.942Z,101307.97
2022-08-03T01:37:45.352Z,101303.13
2022-08-03T01:40:16.159Z,101296.66
2022-08-03T01:42:45.251Z,101309.25
2022-08-03T01:45:15.403Z,101311.47
2022-08-03T01:47:45.702Z,101303.16
2022-08-03T01:50:13.964Z,101303.16
2022-08-03T01:52:42.661Z,101301.81
2022-08-03T01:55:10.624Z,101306.91
2022-08-03T01:58:04.700Z,101305.69
2022-08-03T02:00:27.097Z,101289.66
2022-08-03T02:02:55.743Z,101301.84
2022-08-03T02:05:23.822Z,101292.34
2022-08-03T02:07:52.307Z,101303.97
2022-08-03T02:10:34.377Z,101291.59
2022-08-03T02:13:05.859Z,101302.53
2022-08-03T02:15:33.993Z,101282.28
2022-08-03T02:18:03.314Z,101289.16
2022-08-03T02:20:33.184Z,101288.47
2022-08-03T02:23:00.380Z,101297.63
2022-08-03T02:25:28.663Z,101292.84
2022-08-03T02:28:01.323Z,101294.44
2022-08-03T02:30:38.595Z,101300.72
2022-08-03T02:33:10.890Z,101303.19
2022-08-03T02:35:39.961Z,101299.75
2022-08-03T02:38:11.514Z,101295.09
2022-08-03T02:40:41.252Z,101294.88
2022-08-03T02:43:10.933Z,101295.88
2022-08-03T02:45:45.694Z,101299.13
2022-08-03T02:48:18.016Z,101287.56
2022-08-03T02:50:45.989Z,101294.69
2022-08-03T02:53:14.017Z,101286.19
2022-08-03T02:55:43.290Z,101287.66
2022-08-03T02:58:14.535Z,101287.47
2022-08-03T03:00:44.089Z,101292.91
2022-08-03T03:03:11.505Z,101288.03
2022-08-03T03:05:55.933Z,101273.69
2022-08-03T03:08:28.806Z,101279.22
2022-08-03T03:11:01.109Z,101278.56
2022-08-03T03:13:30.297Z,101278.34
2022-08-03T03:16:00.941Z,101288.13
2022-08-03T03:18:31.030Z,101281.84
2022-08-03T03:21:00.731Z,101284.50
2022-08-03T03:23:29.089Z,101276.59
2022-08-03T03:25:58.634Z,101280.81
2022-08-03T03:28:25.872Z,101276.78
2022-08-03T03:30:53.398Z,101279.22
2022-08-03T03:33:22.004Z,101271.13
2022-08-03T03:35:49.572Z,101272.59
2022-08-03T03:38:16.271Z,101270.56
2022-08-03T03:40:43.412Z,101270.81
2022-08-03T03:43:11.780Z,101270.81
2022-08-03T03:45:40.863Z,101266.53
2022-08-03T03:48:08.623Z,101263.72
2022-08-03T03:50:37.159Z,101271.19
2022-08-03T03:53:04.682Z,101269.78
2022-08-03T03:55:31.449Z,101258.50
2022-08-03T03:57:58.137Z,101262.31
2022-08-03T04:00:25.412Z,101273.50
2022-08-03T04:02:54.645Z,101267.56
2022-08-03T04:05:42.989Z,101273.25
2022-08-03T04:08:33.173Z,101269.59
2022-08-03T04:11:17.104Z,101261.91
2022-08-03T04:13:47.533Z,101269.66
2022-08-03T04:16:16.837Z,101269.84
2022-08-03T04:18:48.457Z,101270.47
2022-08-03T04:21:18.033Z,101266.84
2022-08-03T04:23:47.613Z,101265.59
2022-08-03T04:26:18.980Z,101269.84
2022-08-03T04:28:47.668Z,101281.78
2022-08-03T04:31:15.746Z,101283.41
2022-08-03T04:33:45.184Z,101279.31
2022-08-03T04:36:17.659Z,101284.13
2022-08-03T04:38:55.803Z,101284.94
2022-08-03T04:41:25.664Z,101278.03
2022-08-03T04:43:55.333Z,101290.59
2022-08-03T04:46:26.128Z,101287.75
2022-08-03T04:48:53.570Z,101285.69
2022-08-03T04:51:20.946Z,101297.38
2022-08-03T04:53:47.861Z,101298.00
2022-08-03T04:56:14.432Z,101285.84
2022-08-03T04:58:41.133Z,101296.56
2022-08-03T05:01:08.114Z,101297.75
2022-08-03T05:03:35.125Z,101294.50
2022-08-03T05:06:11.030Z,101297.88
2022-08-03T05:08:46.087Z,101296.56
2022-08-03T05:11:15.583Z,101296.25
2022-08-03T05:13:45.058Z,101311.94
2022-08-03T05:16:12.405Z,101302.66
2022-08-03T05:18:39.252Z,101309.16
2022-08-03T05:21:06.105Z,101300.91
2022-08-03T05:23:32.858Z,101308.28
2022-08-03T05:25:59.621Z,101313.88
2022-08-03T05:28:26.434Z,101315.84
2022-08-03T05:30:53.177Z,101315.97
2022-08-03T05:33:19.804Z,101309.88
2022-08-03T05:36:01.257Z,101310.94
2022-08-03T05:38:34.684Z,101322.09
2022-08-03T05:41:23.423Z,101311.38
2022-08-03T05:43:53.881Z,101316.63
2022-08-03T05:46:21.681Z,101324.34
2022-08-03T05:48:48.493Z,101318.38
2022-08-03T05:51:15.391Z,101308.91
2022-08-03T05:53:43.505Z,101313.25
2022-08-03T05:56:14.147Z,101312.72
2022-08-03T05:58:46.770Z,101313.09
2022-08-03T06:01:14.759Z,101316.81
2022-08-03T06:03:41.995Z,101309.59
2022-08-03T06:06:08.854Z,101313.84
2022-08-03T06:08:35.616Z,101310.13
2022-08-03T06:11:02.757Z,101302.91
2022-08-03T06:13:29.705Z,101312.78
2022-08-03T06:15:56.481Z,101312.22
2022-08-03T06:18:24.586Z,101322.94
2022-08-03T06:20:52.415Z,101316.25
2022-08-03T06:23:19.565Z,101311.88
2022-08-03T06:25:47.541Z,101311.97
2022-08-03T06:31:02.358Z,101316.06
2022-08-03T06:34:30.651Z,101314.53
2022-08-03T06:36:16.148Z,101313.88
2022-08-03T06:38:42.915Z,101327.19
2022-08-03T06:41:09.655Z,101317.56
2022-08-03T06:43:37.968Z,101325.97
2022-08-03T06:46:05.770Z,101323.13
2022-08-03T06:48:32.579Z,101326.69
2022-08-03T06:50:59.444Z,101333.53
2022-08-03T06:53:26.310Z,101322.91
2022-08-03T06:55:55.032Z,101327.91
2022-08-03T06:58:22.585Z,101327.97
2022-08-03T07:00:49.404Z,101324.97
2022-08-03T07:03:16.522Z,101328.72
2022-08-03T07:05:43.856Z,101331.28
2022-08-03T07:08:10.603Z,101330.09
2022-08-03T07:10:37.407Z,101330.63
2022-08-03T07:13:05.533Z,101336.66
2022-08-03T07:15:55.402Z,101330.16
2022-08-03T07:18:28.279Z,101338.31
2022-08-03T07:20:57.027Z,101333.16
2022-08-03T07:23:23.667Z,101343.34
2022-08-03T07:25:50.986Z,101333.09
2022-08-03T07:28:18.030Z,101334.19
2022-08-03T07:30:44.884Z,101339.22
2022-08-03T07:33:11.628Z,101355.97
2022-08-03T07:35:38.649Z,101348.56
2022-08-03T07:38:05.345Z,101350.63
2022-08-03T07:40:32.662Z,101350.94
2022-08-03T07:43:00.486Z,101352.38
2022-08-03T07:45:27.328Z,101345.28
2022-08-03T07:47:54.346Z,101344.16
2022-08-03T07:50:22.381Z,101340.22
2022-08-03T07:52:51.498Z,101345.91
2022-08-03T07:55:20.598Z,101335.09
2022-08-03T07:57:48.360Z,101346.19
2022-08-03T08:00:19.434Z,101334.78
2022-08-03T08:02:46.360Z,101332.72
2022-08-03T08:05:13.186Z,101342.84
2022-08-03T08:07:40.190Z,101339.16
2022-08-03T08:10:09.982Z,101335.91
2022-08-03T08:12:38.306Z,101337.53
2022-08-03T08:15:06.283Z,101343.56
2022-08-03T08:17:42.492Z,101330.63
2022-08-03T08:20:11.344Z,101327.94
2022-08-03T08:22:38.179Z,101316.59
2022-08-03T08:25:07.658Z,101334.84
2022-08-03T08:28:31.450Z,101336.09
2022-08-03T08:30:23.294Z,101334.28
2022-08-03T08:32:56.166Z,101336.72
2022-08-03T08:35:24.147Z,101338.63
2022-08-03T08:37:51.513Z,101321.38
2022-08-03T08:40:21.808Z,101334.41
2022-08-03T08:42:58.014Z,101330.25
2022-08-03T08:45:27.169Z,101323.63
2022-08-03T08:48:00.420Z,101326.03
2022-08-03T08:50:29.720Z,101325.41
2022-08-03T08:53:00.351Z,101326.50
2022-08-03T08:55:27.227Z,101320.25
2022-08-03T08:58:09.662Z,101326.72
2022-08-03T09:00:36.423Z,101322.63
2022-08-03T09:03:03.250Z,101317.06
2022-08-03T09:05:54.986Z,101315.81
2022-08-03T09:08:19.743Z,101312.22
2022-08-03T09:10:46.562Z,101326.53
2022-08-03T09:13:13.367Z,101318.06
2022-08-03T09:15:40.416Z,101322.41
2022-08-03T09:18:32.820Z,101314.34
2022-08-03T09:21:31.654Z,101330.66
2022-08-03T09:24:03.314Z,101328.03
2022-08-03T09:26:32.125Z,101321.41
2022-08-03T09:29:14.585Z,101317.81
2022-08-03T09:31:44.724Z,101314.78
2022-08-03T09:34:16.878Z,101303.63
2022-08-03T09:36:49.499Z,101315.25
2022-08-03T09:39:18.218Z,101312.19
2022-08-03T09:41:48.406Z,101312.75
2022-08-03T09:44:24.680Z,101307.16
2022-08-03T09:47:33.363Z,101318.50
2022-08-03T09:50:09.165Z,101315.84
2022-08-03T09:52:51.881Z,101308.94
2022-08-03T09:56:33.433Z,101311.56
2022-08-03T09:58:10.507Z,101322.88
2022-08-03T10:00:57.802Z,101316.13
2022-08-03T10:03:26.306Z,101311.38
2022-08-03T10:05:59.006Z,101318.63
2022-08-03T10:08:27.662Z,101316.81
2022-08-03T10:10:54.734Z,101316.97
2022-08-03T10:13:22.985Z,101308.00
2022-08-03T10:16:22.945Z,101317.31
2022-08-03T10:18:37.612Z,101309.03
2022-08-03T10:21:07.925Z,101322.59
2022-08-03T10:23:38.658Z,101318.28
2022-08-03T10:26:10.254Z,101309.16
2022-08-03T10:28:50.486Z,101319.78
2022-08-03T10:31:20.369Z,101305.53
2022-08-03T10:33:53.187Z,101319.59
2022-08-03T10:36:27.496Z,101306.22
2022-08-03T10:38:57.097Z,101309.75
2022-08-03T10:41:29.915Z,101309.34
2022-08-03T10:44:03.074Z,101293.53
2022-08-03T10:46:29.818Z,101292.31
2022-08-03T10:48:57.783Z,101287.09
2022-08-03T10:51:30.431Z,101287.34
2022-08-03T10:53:59.092Z,101272.81
2022-08-03T10:56:50.693Z,101285.25
2022-08-03T10:59:46.434Z,101286.94
2022-08-03T11:02:16.356Z,101287.19
2022-08-03T11:04:44.865Z,101277.03
2022-08-03T11:07:26.962Z,101280.81
2022-08-03T11:09:55.808Z,101279.00
2022-08-03T11:12:30.241Z,101277.84
2022-08-03T11:15:02.245Z,101275.97
2022-08-03T11:17:45.909Z,101255.19
2022-08-03T11:20:44.142Z,101271.28
2022-08-03T11:23:11.055Z,101253.38
2022-08-03T11:26:10.147Z,101267.97
2022-08-03T11:28:39.028Z,101262.41
2022-08-03T11:31:48.568Z,101273.00
2022-08-03T11:34:15.873Z,101272.00
2022-08-03T11:37:21.549Z,101265.19
2022-08-03T11:39:50.912Z,101272.66
2022-08-03T11:42:27.507Z,101272.13
2022-08-03T11:44:55.434Z,101257.91
2022-08-03T11:47:27.071Z,101262.06
2022-08-03T11:49:55.867Z,101273.78
2022-08-03T11:52:26.959Z,101261.44
2022-08-03T11:54:56.436Z,101259.28
2022-08-03T11:59:11.241Z,101271.66
2022-08-03T12:00:42.870Z,101260.28
2022-08-03T12:07:25.892Z,101251.78
2022-08-03T12:10:15.153Z,101254.13
2022-08-03T12:12:46.383Z,101260.94
2022-08-03T12:15:13.707Z,101259.97
2022-08-03T12:17:41.814Z,101268.53
2022-08-03T12:20:10.535Z,101252.47
2022-08-03T12:22:39.336Z,101257.56
2022-08-03T12:25:09.848Z,101252.66
2022-08-03T12:27:37.385Z,101264.03
2022-08-03T12:30:04.935Z,101256.06
2022-08-03T12:32:31.915Z,101269.09
2022-08-03T12:35:04.648Z,101243.75
2022-08-03T12:37:32.361Z,101244.06
2022-08-03T12:40:10.565Z,101262.88
2022-08-03T12:42:39.619Z,101274.25
2022-08-03T12:45:27.871Z,101283.56
2022-08-03T12:47:59.888Z,101253.38
2022-08-03T12:50:45.512Z,101273.13
2022-08-03T12:53:29.193Z,101254.66
2022-08-03T12:56:05.661Z,101263.84
2022-08-03T12:58:36.009Z,101261.84
2022-08-03T13:01:09.746Z,101259.44
2022-08-03T13:03:49.625Z,101244.25
2022-08-03T13:06:23.015Z,101245.47
2022-08-03T13:08:53.962Z,101251.31
2022-08-03T13:11:57.883Z,101241.66
2022-08-03T13:14:13.502Z,101253.31
2022-08-03T13:16:46.153Z,101250.69
2022-08-03T13:19:15.584Z,101253.63
2022-08-03T13:22:01.367Z,101246.75
2022-08-03T13:24:33.311Z,101240.72
2022-08-03T13:27:02.826Z,101228.22
2022-08-03T13:29:49.633Z,101233.91
2022-08-03T13:32:16.686Z,101228.22
2022-08-03T13:34:46.444Z,101235.69
2022-08-03T13:37:16.326Z,101244.25
2022-08-03T13:39:58.078Z,101234.72
2022-08-03T13:42:32.421Z,101248.78
2022-08-03T13:45:00.618Z,101225.03
2022-08-03T13:47:43.417Z,101225.50
2022-08-03T13:50:10.559Z,101230.78
2022-08-03T13:52:40.029Z,101236.91
2022-08-03T13:55:30.476Z,101218.84
2022-08-03T13:58:07.665Z,101231.25
2022-08-03T14:00:48.929Z,101222.81
2022-08-03T14:03:15.833Z,101216.16
2022-08-03T14:05:44.054Z,101220.13
2022-08-03T14:08:11.691Z,101214.38
2022-08-03T14:10:42.201Z,101213.03
2022-08-03T14:13:10.501Z,101209.97
2022-08-03T14:15:38.648Z,101217.75
2022-08-03T14:18:15.910Z,101207.19
2022-08-03T14:20:56.787Z,101208.41
2022-08-03T14:23:24.709Z,101193.94
2022-08-03T14:25:53.066Z,101194.41
2022-08-03T14:28:25.288Z,101197.69
2022-08-03T14:30:54.463Z,101191.34
2022-08-03T14:33:21.470Z,101197.97
2022-08-03T14:35:48.695Z,101194.59
2022-08-03T14:38:16.306Z,101188.03
2022-08-03T14:40:43.671Z,101184.31
2022-08-03T14:43:10.665Z,101171.94
2022-08-03T14:45:37.283Z,101166.19
2022-08-03T14:50:28.728Z,101178.28
2022-08-03T14:50:55.572Z,101164.88
2022-08-03T14:53:22.539Z,101168.84
2022-08-03T14:55:51.734Z,101172.66
2022-08-03T14:58:23.522Z,101177.69
2022-08-03T15:00:51.825Z,101177.06
2022-08-03T15:03:23.156Z,101172.41
2022-08-03T15:05:55.342Z,101168.97
2022-08-03T15:08:24.175Z,101168.72
2022-08-03T15:10:51.537Z,101164.66
2022-08-03T15:13:19.486Z,101158.22
2022-08-03T15:15:46.519Z,101153.88
2022-08-03T15:18:13.153Z,101152.31
2022-08-03T15:20:44.837Z,101143.94
2022-08-03T15:23:12.848Z,101146.72
2022-08-03T15:26:06.494Z,101141.97
2022-08-03T15:28:26.399Z,101155.47
2022-08-03T15:30:53.151Z,101149.13
2022-08-03T15:33:20.229Z,101143.09
2022-08-03T15:35:47.723Z,101137.69
2022-08-03T15:38:14.814Z,101136.91
2022-08-03T15:40:41.954Z,101141.84
2022-08-03T15:43:09.242Z,101138.19
2022-08-03T15:45:40.493Z,101137.38
2022-08-03T15:48:09.079Z,101136.06
2022-08-03T15:50:36.068Z,101133.16
2022-08-03T15:53:03.794Z,101135.50
2022-08-03T15:55:31.198Z,101128.00
2022-08-03T15:59:04.506Z,101124.53
2022-08-03T16:00:45.122Z,101130.09
2022-08-03T16:03:11.757Z,101119.44
2022-08-03T16:05:38.664Z,101116.28
2022-08-03T16:08:08.031Z,101113.03
2022-08-03T16:10:38.593Z,101119.34
2022-08-03T16:13:05.366Z,101119.19
2022-08-03T16:15:32.374Z,101111.00
2022-08-03T16:18:06.318Z,101108.09
2022-08-03T16:20:35.072Z,101113.06
2022-08-03T16:23:10.988Z,101103.53
2022-08-03T16:25:44.441Z,101104.03
2022-08-03T16:28:38.749Z,101103.81
2022-08-03T16:31:06.476Z,101099.25
2022-08-03T16:33:33.476Z,101105.13
2022-08-03T16:36:00.786Z,101098.28
2022-08-03T16:38:27.441Z,101102.25
2022-08-03T16:40:54.149Z,101080.81
2022-08-03T16:43:22.525Z,101097.47
2022-08-03T16:45:49.815Z,101100.63
2022-08-03T16:48:18.089Z,101105.19
2022-08-03T16:50:45.029Z,101098.53
2022-08-03T16:53:12.898Z,101098.81
2022-08-03T16:55:53.851Z,101094.38
2022-08-03T16:58:41.717Z,101089.75
2022-08-03T17:01:22.216Z,101083.09
2022-08-03T17:04:03.353Z,101091.47
2022-08-03T17:06:35.880Z,101090.66
2022-08-03T17:09:08.456Z,101092.25
2022-08-03T17:11:48.035Z,101095.59
2022-08-03T17:14:23.773Z,101083.19
2022-08-03T17:17:01.484Z,101083.06
2022-08-03T17:19:31.409Z,101091.03
2022-08-03T17:22:12.339Z,101097.34
2022-08-03T17:24:44.480Z,101094.19
2022-08-03T17:28:42.050Z,101082.31
2022-08-03T17:30:13.457Z,101093.38
2022-08-03T17:32:56.623Z,101101.78
2022-08-03T17:35:24.010Z,101093.53
2022-08-03T17:38:03.077Z,101096.38
2022-08-03T17:40:31.668Z,101102.59
2022-08-03T17:43:00.436Z,101098.44
2022-08-03T17:45:52.180Z,101096.13
2022-08-03T17:48:18.422Z,101099.88
2022-08-03T17:50:55.528Z,101094.69
2022-08-03T17:53:33.195Z,101100.00
2022-08-03T17:56:42.602Z,101097.66
2022-08-03T17:59:51.793Z,101106.72
2022-08-03T18:03:06.323Z,101099.63
2022-08-03T18:06:10.956Z,101099.34
2022-08-03T18:08:28.840Z,101101.00
2022-08-03T18:11:14.340Z,101105.69
2022-08-03T18:14:16.482Z,101108.31
2022-08-03T18:16:57.796Z,101105.50
2022-08-03T18:20:00.982Z,101114.97
2022-08-03T18:22:19.916Z,101103.66
2022-08-03T18:24:49.704Z,101110.00
2022-08-03T18:27:16.400Z,101100.97
2022-08-03T18:29:46.643Z,101101.28
2022-08-03T18:32:17.086Z,101108.19
2022-08-03T18:34:53.643Z,101113.22
2022-08-03T18:37:25.130Z,101105.44
2022-08-03T18:40:11.535Z,101118.69
2022-08-03T18:42:38.212Z,101112.25
2022-08-03T18:45:55.772Z,101116.25
2022-08-03T18:48:06.898Z,101113.72
2022-08-03T18:50:40.451Z,101110.66
2022-08-03T18:53:19.580Z,101117.66
2022-08-03T18:56:02.046Z,101101.69
2022-08-03T18:58:38.863Z,101111.84
2022-08-03T19:01:58.592Z,101117.94
2022-08-03T19:04:52.262Z,101114.81
2022-08-03T19:07:25.998Z,101118.69
2022-08-03T19:09:59.241Z,101113.69
2022-08-03T19:12:39.550Z,101130.13
2022-08-03T19:15:12.337Z,101124.31
2022-08-03T19:17:43.285Z,101121.00
2022-08-03T19:20:25.214Z,101121.19
2022-08-03T19:22:52.839Z,101117.28
2022-08-03T19:25:19.641Z,101127.25
2022-08-03T19:27:47.509Z,101135.22
2022-08-03T19:30:35.769Z,101136.19
2022-08-03T19:33:11.344Z,101132.50
2022-08-03T19:35:55.565Z,101139.47
2022-08-03T19:38:29.025Z,101135.19
2022-08-03T19:40:59.730Z,101135.13
2022-08-03T19:43:33.090Z,101137.03
2022-08-03T19:46:16.941Z,101142.13
2022-08-03T19:48:53.977Z,101142.72
2022-08-03T19:51:58.251Z,101143.28
2022-08-03T19:54:14.756Z,101144.94
2022-08-03T19:56:46.492Z,101143.59
2022-08-03T19:59:19.747Z,101145.97
2022-08-03T20:01:50.994Z,101142.28
2022-08-03T20:04:18.556Z,101144.97
2022-08-03T20:06:49.803Z,101147.75
2022-08-03T20:09:18.583Z,101153.59
2022-08-03T20:11:47.812Z,101144.03
2022-08-03T20:14:20.728Z,101139.53
2022-08-03T20:16:53.475Z,101145.66
2022-08-03T20:19:20.384Z,101153.69
2022-08-03T20:21:49.168Z,101147.28
2022-08-03T20:24:28.443Z,101138.75
2022-08-03T20:26:58.099Z,101139.28
2022-08-03T20:30:05.290Z,101139.81
2022-08-03T20:32:28.107Z,101135.00
2022-08-03T20:34:54.772Z,101137.69
2022-08-03T20:37:22.395Z,101137.41
2022-08-03T20:39:49.733Z,101136.84
2022-08-03T20:42:21.143Z,101140.63
2022-08-03T20:45:13.908Z,101139.25
2022-08-03T20:48:01.045Z,101136.31
2022-08-03T20:50:28.563Z,101139.00
2022-08-03T20:52:55.437Z,101132.06
2022-08-03T20:55:48.245Z,101133.94
2022-08-03T20:58:11.205Z,101140.31
2022-08-03T21:00:41.022Z,101131.75
2022-08-03T21:03:08.935Z,101138.69
2022-08-03T21:05:48.283Z,101134.13
2022-08-03T21:08:21.655Z,101138.41
2022-08-03T21:10:50.271Z,101131.94
2022-08-03T21:13:31.722Z,101133.56
2022-08-03T21:16:13.189Z,101129.53
2022-08-03T21:18:52.338Z,101128.22
2022-08-03T21:21:22.418Z,101130.66
2022-08-03T21:23:54.758Z,101117.03
2022-08-03T21:26:24.738Z,101129.56
2022-08-03T21:28:53.726Z,101124.72
2022-08-03T21:31:24.580Z,101117.22
2022-08-03T21:33:57.839Z,101115.34
2022-08-03T21:36:31.369Z,101118.84
2022-08-03T21:38:59.271Z,101107.03
2022-08-03T21:41:31.265Z,101113.91
2022-08-03T21:43:59.507Z,101115.25
2022-08-03T21:46:27.896Z,101104.75
2022-08-03T21:50:02.748Z,101110.66
2022-08-03T21:51:49.568Z,101110.38
2022-08-03T21:54:17.838Z,101112.44
2022-08-03T21:56:47.903Z,101110.56
2022-08-03T21:59:20.200Z,101104.66
2022-08-03T22:01:55.013Z,101101.72
2022-08-03T22:04:50.086Z,101104.91
2022-08-03T22:07:09.320Z,101104.59
2022-08-03T22:09:37.508Z,101104.03
2022-08-03T22:12:05.098Z,101105.72
2022-08-03T22:14:33.199Z,101102.31
2022-08-03T22:17:06.250Z,101104.19
2022-08-03T22:19:34.023Z,101101.69
2022-08-03T22:22:06.229Z,101091.94
2022-08-03T22:24:35.988Z,101092.69
2022-08-03T22:27:22.174Z,101092.09
2022-08-03T22:29:50.737Z,101091.28
2022-08-03T22:32:17.637Z,101090.72
2022-08-03T22:34:47.073Z,101088.28
2022-08-03T22:37:16.515Z,101090.69
2022-08-03T22:39:44.631Z,101082.91
2022-08-03T22:42:11.935Z,101088.97
2022-08-03T22:44:40.474Z,101081.47
2022-08-03T22:47:28.649Z,101083.28
2022-08-03T22:50:33.543Z,101083.72
2022-08-03T22:52:44.741Z,101076.13
2022-08-03T22:55:24.513Z,101074.97
2022-08-03T22:57:56.024Z,101077.53
2022-08-03T23:00:24.128Z,101076.88
2022-08-03T23:02:53.847Z,101074.16
2022-08-03T23:06:02.593Z,101062.66
2022-08-03T23:08:14.960Z,101076.22
2022-08-03T23:10:46.844Z,101072.44
2022-08-03T23:13:16.554Z,101071.56
2022-08-03T23:15:50.829Z,101071.22
2022-08-03T23:18:19.595Z,101069.53
2022-08-03T23:20:50.273Z,101062.03
2022-08-03T23:23:19.768Z,101066.53
2022-08-03T23:25:49.341Z,101062.16
2022-08-03T23:28:16.407Z,101071.09
2022-08-03T23:30:46.835Z,101060.88
2022-08-03T23:33:17.472Z,101063.53
2022-08-03T23:36:27.628Z,101061.81
2022-08-03T23:38:48.891Z,101059.19
2022-08-03T23:41:17.632Z,101060.19
2022-08-03T23:43:51.881Z,101050.41
2022-08-03T23:46:25.698Z,101054.88
2022-08-03T23:48:58.582Z,101059.94
2022-08-03T23:51:56.383Z,101059.00
2022-08-03T23:55:00.574Z,101053.00
2022-08-03T23:57:27.309Z,101062.25
